Time;durP1;ratioP1;P1;durP2;ratioP2;P2;SDS_P1;SDS_P2;PMS_P1;PMS_P2;Temp;Humidity;BMP_temperature;BMP_pressure;BME280_temperature;BME280_humidity;BME280_pressure;Samples;Min_cycle;Max_cycle;Signal;HPM_P1;HPM_P2
2021/09/15 00:02:15;;;;;;;28.15;23.63;;;18.80;99.90;;;;;;5073102;28;20050;-70
2021/09/15 00:04:40;;;;;;;30.08;25.40;;;18.80;99.90;;;;;;5073094;28;20127;-70
2021/09/15 00:07:06;;;;;;;28.58;24.88;;;18.80;99.90;;;;;;5074307;28;20044;-69
2021/09/15 00:09:34;;;;;;;30.85;26.13;;;18.80;99.90;;;;;;5073613;28;20039;-69
2021/09/15 00:12:00;;;;;;;29.75;25.27;;;18.70;99.90;;;;;;5074324;28;20570;-69
2021/09/15 00:14:26;;;;;;;30.98;25.98;;;18.70;99.90;;;;;;5072437;28;20040;-69
2021/09/15 00:16:52;;;;;;;32.40;25.02;;;18.60;99.90;;;;;;5073869;28;20401;-69
2021/09/15 00:19:18;;;;;;;32.25;26.63;;;18.50;99.90;;;;;;5072285;28;20074;-69
2021/09/15 00:21:43;;;;;;;30.45;26.45;;;18.50;99.90;;;;;;5073700;28;20040;-69
2021/09/15 00:24:09;;;;;;;31.70;27.45;;;18.50;99.90;;;;;;5073580;28;20119;-69
2021/09/15 00:26:35;;;;;;;31.58;26.83;;;18.50;99.90;;;;;;5073571;28;20193;-69
2021/09/15 00:29:00;;;;;;;33.03;27.00;;;18.50;99.90;;;;;;5073434;28;20036;-70
2021/09/15 00:31:26;;;;;;;30.67;27.25;;;18.50;99.90;;;;;;5072377;28;20040;-69
2021/09/15 00:33:51;;;;;;;33.80;28.92;;;18.40;99.90;;;;;;5073703;28;20044;-69
2021/09/15 00:36:17;;;;;;;33.40;27.20;;;18.40;99.90;;;;;;5072286;28;20051;-69
2021/09/15 00:38:43;;;;;;;30.38;26.55;;;18.40;99.90;;;;;;5073053;28;20043;-69
2021/09/15 00:41:09;;;;;;;31.10;27.38;;;18.30;99.90;;;;;;5073597;28;20025;-69
2021/09/15 00:43:58;;;;;;;31.80;27.08;;;18.30;99.90;;;;;;5073483;28;20041;-69
2021/09/15 00:46:24;;;;;;;29.58;26.00;;;18.30;99.90;;;;;;5073586;28;20044;-69
2021/09/15 00:48:49;;;;;;;35.65;28.15;;;18.20;99.90;;;;;;5073072;28;20401;-69
2021/09/15 00:51:15;;;;;;;36.33;26.70;;;18.20;99.90;;;;;;5073157;28;20089;-69
2021/09/15 00:53:43;;;;;;;32.67;27.30;;;18.20;99.90;;;;;;5073321;28;20064;-69
2021/09/15 00:56:12;;;;;;;32.03;26.83;;;18.20;99.90;;;;;;5073434;28;20170;-69
2021/09/15 00:58:38;;;;;;;30.30;25.15;;;18.30;99.90;;;;;;5073048;28;20058;-69
2021/09/15 01:01:03;;;;;;;36.25;28.95;;;18.20;99.90;;;;;;5073251;28;20040;-69
2021/09/15 01:03:29;;;;;;;32.55;27.75;;;18.20;99.90;;;;;;5073843;28;20081;-69
2021/09/15 01:05:55;;;;;;;32.53;27.50;;;18.20;99.90;;;;;;5073073;28;20040;-69
2021/09/15 01:08:22;;;;;;;35.42;27.88;;;18.10;99.90;;;;;;5071987;28;20815;-69
2021/09/15 01:10:48;;;;;;;33.90;28.55;;;18.20;99.90;;;;;;5072739;28;20052;-69
2021/09/15 01:13:14;;;;;;;31.33;27.48;;;18.20;99.90;;;;;;5071797;28;20412;-69
2021/09/15 01:15:40;;;;;;;32.00;27.70;;;18.20;99.90;;;;;;5072044;28;20481;-69
2021/09/15 01:18:19;;;;;;;32.40;28.70;;;18.20;99.90;;;;;;5073356;28;20050;-69
2021/09/15 01:20:46;;;;;;;32.15;28.10;;;18.20;99.90;;;;;;5072528;28;20039;-69
2021/09/15 01:23:15;;;;;;;33.20;27.80;;;18.10;99.90;;;;;;5072866;28;20036;-69
2021/09/15 01:25:41;;;;;;;31.15;27.75;;;18.20;99.90;;;;;;5073073;28;20075;-69
2021/09/15 01:28:07;;;;;;;30.38;26.67;;;18.10;99.90;;;;;;5071729;28;20456;-69
2021/09/15 01:30:33;;;;;;;35.13;27.02;;;18.10;99.90;;;;;;5072819;28;20044;-69
2021/09/15 01:32:59;;;;;;;31.80;26.92;;;18.10;99.90;;;;;;5072872;28;20538;-69
2021/09/15 01:35:25;;;;;;;33.35;26.83;;;18.10;99.90;;;;;;5072690;28;20036;-69
2021/09/15 01:37:50;;;;;;;30.83;27.58;;;18.10;99.90;;;;;;5072787;28;20400;-69
2021/09/15 01:40:16;;;;;;;31.58;27.83;;;18.10;99.90;;;;;;5072637;28;20112;-69
2021/09/15 01:42:42;;;;;;;32.28;27.17;;;18.10;99.90;;;;;;5071785;28;20037;-69
2021/09/15 01:45:10;;;;;;;30.95;27.35;;;18.10;99.90;;;;;;5072270;28;20469;-69
2021/09/15 01:47:37;;;;;;;31.50;28.15;;;18.10;99.90;;;;;;5073326;28;20385;-69
2021/09/15 01:50:04;;;;;;;29.75;26.55;;;18.10;99.90;;;;;;5072547;28;20044;-69
2021/09/15 01:52:30;;;;;;;30.00;26.77;;;18.00;99.90;;;;;;5075277;28;20380;-69
2021/09/15 01:54:55;;;;;;;34.15;26.48;;;18.00;99.90;;;;;;5076443;28;20043;-69
2021/09/15 01:57:21;;;;;;;30.58;27.00;;;18.00;99.90;;;;;;5076540;28;20071;-69
2021/09/15 01:59:47;;;;;;;32.92;27.80;;;17.90;99.90;;;;;;5075070;28;20580;-69
2021/09/15 02:02:13;;;;;;;33.92;28.65;;;17.90;99.90;;;;;;5076154;28;20040;-69
2021/09/15 02:04:39;;;;;;;35.20;28.17;;;17.90;99.90;;;;;;5074985;28;20044;-69
2021/09/15 02:07:05;;;;;;;42.83;29.17;;;17.90;99.90;;;;;;5075023;28;20500;-69
2021/09/15 02:09:31;;;;;;;33.92;27.17;;;17.80;99.90;;;;;;5076334;28;20116;-69
2021/09/15 02:11:57;;;;;;;34.60;30.48;;;17.80;99.90;;;;;;5076207;28;20196;-69
2021/09/15 02:14:23;;;;;;;31.88;27.60;;;17.80;99.90;;;;;;5075163;28;20125;-69
2021/09/15 02:16:48;;;;;;;33.05;28.40;;;17.80;99.90;;;;;;5076008;28;20047;-69
2021/09/15 02:19:14;;;;;;;36.55;28.98;;;17.80;99.90;;;;;;5075764;28;20528;-69
2021/09/15 02:21:40;;;;;;;37.00;31.48;;;17.70;99.90;;;;;;5075913;28;20048;-69
2021/09/15 02:24:05;;;;;;;32.13;27.35;;;17.70;99.90;;;;;;5074756;28;20051;-69
2021/09/15 02:26:31;;;;;;;34.20;28.35;;;17.60;99.90;;;;;;5074858;28;20043;-69
2021/09/15 02:29:00;;;;;;;31.35;27.77;;;17.60;99.90;;;;;;5074366;28;20062;-69
2021/09/15 02:31:26;;;;;;;32.75;28.88;;;17.60;99.90;;;;;;5075722;28;20036;-69
2021/09/15 02:33:52;;;;;;;36.97;29.52;;;17.60;99.90;;;;;;5076477;28;20139;-69
2021/09/15 02:36:17;;;;;;;33.65;28.67;;;17.60;99.90;;;;;;5074356;28;20107;-69
2021/09/15 02:38:43;;;;;;;33.65;29.40;;;17.60;99.90;;;;;;5074175;28;20049;-69
2021/09/15 02:41:09;;;;;;;36.53;31.85;;;17.60;99.90;;;;;;5075652;28;20098;-69
2021/09/15 02:43:35;;;;;;;36.70;28.92;;;17.60;99.90;;;;;;5074824;28;20385;-69
2021/09/15 02:46:00;;;;;;;36.05;29.95;;;17.50;99.90;;;;;;5074400;28;20040;-69
2021/09/15 02:48:26;;;;;;;35.95;31.30;;;17.50;99.90;;;;;;5075603;28;20040;-69
2021/09/15 02:50:52;;;;;;;39.67;32.83;;;17.50;99.90;;;;;;5074222;28;20097;-69
2021/09/15 02:53:18;;;;;;;39.00;32.30;;;17.50;99.90;;;;;;5075631;28;20500;-70
2021/09/15 02:55:43;;;;;;;46.38;35.78;;;17.50;99.90;;;;;;5075644;28;20066;-70
2021/09/15 02:58:09;;;;;;;39.47;32.72;;;17.50;99.90;;;;;;5075427;28;20047;-69
2021/09/15 03:00:35;;;;;;;44.22;36.83;;;17.50;99.90;;;;;;5073844;28;20115;-69
2021/09/15 03:03:02;;;;;;;42.22;34.50;;;17.50;99.90;;;;;;5075925;28;20403;-69
2021/09/15 03:05:28;;;;;;;44.83;35.92;;;17.60;99.90;;;;;;5075594;28;20115;-69
2021/09/15 03:07:54;;;;;;;50.63;39.25;;;17.60;99.90;;;;;;5075572;28;20105;-69
2021/09/15 03:10:19;;;;;;;43.10;34.45;;;17.60;99.90;;;;;;5075073;28;20493;-69
2021/09/15 03:12:45;;;;;;;43.10;35.97;;;17.60;99.90;;;;;;5075180;28;20037;-69
2021/09/15 03:15:11;;;;;;;45.80;36.10;;;17.60;99.90;;;;;;5074837;28;20370;-69
2021/09/15 03:17:36;;;;;;;57.25;40.88;;;17.60;99.90;;;;;;5057253;28;20410;-69
2021/09/15 03:20:04;;;;;;;46.65;37.35;;;17.60;99.90;;;;;;5074659;28;20127;-69
2021/09/15 03:22:30;;;;;;;45.92;37.35;;;17.60;99.90;;;;;;5073497;28;20048;-69
2021/09/15 03:24:55;;;;;;;48.15;37.10;;;17.60;99.90;;;;;;5074865;28;20048;-69
2021/09/15 03:27:21;;;;;;;44.70;36.05;;;17.60;99.90;;;;;;5075114;28;20033;-69
2021/09/15 03:29:46;;;;;;;43.38;35.45;;;17.60;99.90;;;;;;5073092;28;20079;-69
2021/09/15 03:32:12;;;;;;;50.75;38.67;;;17.60;99.90;;;;;;5074866;28;20032;-69
2021/09/15 03:34:37;;;;;;;52.53;40.30;;;17.60;99.90;;;;;;5074712;28;20093;-69
2021/09/15 03:37:03;;;;;;;53.35;40.28;;;17.60;99.90;;;;;;5074698;28;20404;-69
2021/09/15 03:39:29;;;;;;;48.50;37.90;;;17.60;99.90;;;;;;5074465;28;20052;-69
2021/09/15 03:41:54;;;;;;;49.42;39.17;;;17.50;99.90;;;;;;5074632;28;20435;-69
2021/09/15 03:44:20;;;;;;;47.75;35.55;;;17.60;99.90;;;;;;5074576;28;20122;-69
2021/09/15 03:46:45;;;;;;;57.92;41.40;;;17.50;99.90;;;;;;5073358;28;20427;-69
2021/09/15 03:49:11;;;;;;;45.53;36.60;;;17.60;99.90;;;;;;5074117;28;20119;-69
2021/09/15 03:51:37;;;;;;;43.08;36.75;;;17.50;99.90;;;;;;5074372;28;20400;-69
2021/09/15 03:54:03;;;;;;;43.95;37.47;;;17.50;99.90;;;;;;5074730;28;20043;-69
2021/09/15 03:56:28;;;;;;;46.67;37.13;;;17.50;99.90;;;;;;5072765;28;20048;-69
2021/09/15 03:58:54;;;;;;;49.70;38.78;;;17.50;99.90;;;;;;5073060;28;20059;-69
2021/09/15 04:01:19;;;;;;;48.65;37.30;;;17.50;99.90;;;;;;5072703;28;20036;-69
2021/09/15 04:03:45;;;;;;;49.63;39.67;;;17.50;99.90;;;;;;5074222;28;20040;-69
2021/09/15 04:06:11;;;;;;;44.65;36.65;;;17.40;99.90;;;;;;5074014;28;20068;-69
2021/09/15 04:08:36;;;;;;;55.55;39.28;;;17.50;99.90;;;;;;5072599;28;20045;-69
2021/09/15 04:11:02;;;;;;;48.10;38.10;;;17.40;99.90;;;;;;5074072;28;20032;-69
2021/09/15 04:13:28;;;;;;;45.35;36.95;;;17.40;99.90;;;;;;5072289;28;20039;-69
2021/09/15 04:15:53;;;;;;;52.05;39.20;;;17.40;99.90;;;;;;5073928;28;20044;-69
2021/09/15 04:18:19;;;;;;;49.50;39.10;;;17.30;99.90;;;;;;5073702;28;20033;-69
2021/09/15 04:20:46;;;;;;;57.17;40.85;;;17.30;99.90;;;;;;5073630;28;20404;-69
2021/09/15 04:23:16;;;;;;;48.22;37.45;;;17.30;99.90;;;;;;5072442;28;20155;-69
2021/09/15 04:31:24;;;;;;;52.78;41.38;;;17.30;99.90;;;;;;5073951;28;20040;-69
2021/09/15 04:33:51;;;;;;;49.42;38.60;;;17.30;99.90;;;;;;5072286;28;20040;-69
2021/09/15 04:36:17;;;;;;;51.88;38.90;;;17.30;99.90;;;;;;5072875;28;20044;-69
2021/09/15 04:38:43;;;;;;;48.42;39.90;;;17.30;99.90;;;;;;5073760;28;20043;-69
2021/09/15 04:41:10;;;;;;;49.33;38.33;;;17.30;99.90;;;;;;5073843;28;20029;-69
2021/09/15 04:43:35;;;;;;;46.03;35.90;;;17.30;99.90;;;;;;5073815;28;20037;-69
2021/09/15 04:46:01;;;;;;;50.72;39.92;;;17.30;99.90;;;;;;5073642;28;20408;-69
2021/09/15 04:48:26;;;;;;;51.13;39.13;;;17.20;99.90;;;;;;5073851;28;20040;-69
2021/09/15 04:50:52;;;;;;;48.47;39.58;;;17.30;99.90;;;;;;5073193;28;20040;-69
2021/09/15 04:53:18;;;;;;;47.53;37.00;;;17.30;99.90;;;;;;5073590;28;20119;-69
2021/09/15 04:55:44;;;;;;;50.53;38.42;;;17.30;99.90;;;;;;5073430;28;20052;-69
2021/09/15 04:58:09;;;;;;;45.33;36.08;;;17.20;99.90;;;;;;5073324;28;20086;-69
2021/09/15 05:00:35;;;;;;;49.83;39.80;;;17.20;99.90;;;;;;5071438;28;20041;-69
2021/09/15 05:03:01;;;;;;;50.83;38.72;;;17.20;99.90;;;;;;5073668;28;20037;-69
2021/09/15 05:05:26;;;;;;;48.67;37.42;;;17.20;99.90;;;;;;5073272;28;20388;-69
2021/09/15 05:07:52;;;;;;;51.58;38.75;;;17.20;99.90;;;;;;5072044;28;20500;-69
2021/09/15 05:10:18;;;;;;;52.95;39.25;;;17.20;99.90;;;;;;5071961;28;20048;-70
2021/09/15 05:12:43;;;;;;;45.92;37.15;;;17.20;99.90;;;;;;5073010;28;20040;-70
2021/09/15 05:15:09;;;;;;;54.33;41.17;;;17.20;99.90;;;;;;5073252;28;20085;-70
2021/09/15 05:17:35;;;;;;;55.50;39.55;;;17.20;99.90;;;;;;5073142;28;20400;-70
2021/09/15 05:20:01;;;;;;;51.25;40.22;;;17.20;99.90;;;;;;5072837;28;20066;-70
2021/09/15 05:22:27;;;;;;;48.58;37.88;;;17.20;99.90;;;;;;5071922;28;20068;-70
2021/09/15 05:24:53;;;;;;;47.28;37.85;;;17.20;99.90;;;;;;5073334;28;20113;-70
2021/09/15 05:27:19;;;;;;;45.50;36.22;;;17.20;99.90;;;;;;5075434;28;20045;-70
2021/09/15 05:29:45;;;;;;;44.80;35.00;;;17.20;99.90;;;;;;5077064;28;20037;-70
2021/09/15 05:32:12;;;;;;;45.00;36.13;;;17.20;99.90;;;;;;5077061;28;20041;-70
2021/09/15 05:34:38;;;;;;;45.63;35.13;;;17.10;99.90;;;;;;5075931;28;20043;-70
2021/09/15 05:37:03;;;;;;;51.67;38.45;;;17.20;99.90;;;;;;5076720;28;20045;-70
2021/09/15 05:39:29;;;;;;;45.92;37.63;;;17.20;99.90;;;;;;5076425;28;20078;-70
2021/09/15 05:41:55;;;;;;;56.67;42.72;;;17.20;99.90;;;;;;5077254;28;20090;-70
2021/09/15 05:44:20;;;;;;;51.35;38.10;;;17.20;99.90;;;;;;5077015;28;20113;-70
2021/09/15 05:46:46;;;;;;;57.42;40.42;;;17.20;99.90;;;;;;5076757;28;20044;-70
2021/09/15 05:49:12;;;;;;;56.22;40.83;;;17.20;99.90;;;;;;5076353;28;20033;-70
2021/09/15 05:51:37;;;;;;;59.35;41.97;;;17.20;99.90;;;;;;5076731;28;20083;-70
2021/09/15 05:54:04;;;;;;;70.60;50.15;;;17.30;99.90;;;;;;5076848;28;20040;-70
2021/09/15 05:56:30;;;;;;;63.70;45.38;;;17.30;99.90;;;;;;5058437;28;20044;-70
2021/09/15 05:58:55;;;;;;;70.70;46.60;;;17.30;99.90;;;;;;5074829;28;20094;-70
2021/09/15 06:01:21;;;;;;;68.68;47.92;;;17.40;99.90;;;;;;5076475;28;20489;-70
2021/09/15 06:03:46;;;;;;;65.43;47.53;;;17.40;99.90;;;;;;5058501;28;20040;-70
2021/09/15 06:06:12;;;;;;;69.35;48.83;;;17.50;99.90;;;;;;5074900;28;20051;-70
2021/09/15 06:08:38;;;;;;;67.82;47.40;;;17.50;99.90;;;;;;5076061;28;20048;-70
2021/09/15 06:11:03;;;;;;;68.00;46.60;;;17.50;99.90;;;;;;5075123;28;20076;-70
2021/09/15 06:13:29;;;;;;;64.18;45.25;;;17.60;99.90;;;;;;5076368;28;20400;-70
2021/09/15 06:15:54;;;;;;;65.53;46.70;;;17.60;99.90;;;;;;5076088;28;20039;-68
2021/09/15 06:18:20;;;;;;;68.40;46.70;;;17.60;99.90;;;;;;5076181;28;20107;-68
2021/09/15 06:20:45;;;;;;;66.97;46.00;;;17.70;99.90;;;;;;5075913;28;20484;-69
2021/09/15 06:23:11;;;;;;;60.60;42.90;;;17.70;99.90;;;;;;5076238;28;20110;-69
2021/09/15 06:25:40;;;;;;;64.03;45.58;;;17.80;99.90;;;;;;5076024;28;20044;-69
2021/09/15 06:28:06;;;;;;;59.60;42.63;;;17.80;99.90;;;;;;5076391;28;20158;-69
2021/09/15 06:30:33;;;;;;;62.78;45.08;;;17.80;99.90;;;;;;5074640;28;20518;-69
2021/09/15 06:32:58;;;;;;;64.88;44.65;;;17.90;99.90;;;;;;5076403;28;20044;-69
2021/09/15 06:35:25;;;;;;;61.95;44.00;;;17.90;99.90;;;;;;5075969;28;20047;-69
2021/09/15 06:37:50;;;;;;;57.08;44.33;;;17.90;99.90;;;;;;5075176;28;20476;-70
2021/09/15 06:40:16;;;;;;;57.78;45.17;;;17.90;99.90;;;;;;5075526;28;20081;-69
2021/09/15 06:42:42;;;;;;;67.32;48.38;;;17.90;99.90;;;;;;5074566;28;20044;-69
2021/09/15 06:45:08;;;;;;;65.13;46.00;;;18.00;99.90;;;;;;5075837;28;20093;-69
2021/09/15 06:47:42;;;;;;;63.35;45.95;;;18.00;99.90;;;;;;5075752;28;20131;-69
2021/09/15 06:50:09;;;;;;;65.32;46.80;;;18.00;99.90;;;;;;5075741;28;20107;-69
2021/09/15 06:52:35;;;;;;;62.70;45.80;;;18.00;99.90;;;;;;5075607;28;20496;-69
2021/09/15 06:55:00;;;;;;;72.88;50.75;;;18.00;99.90;;;;;;5075543;28;20123;-69
2021/09/15 06:57:26;;;;;;;79.40;54.35;;;18.10;99.90;;;;;;5075489;28;20040;-69
2021/09/15 06:59:51;;;;;;;70.10;49.78;;;18.10;99.90;;;;;;5074239;28;20040;-69
2021/09/15 07:02:17;;;;;;;63.95;45.83;;;18.10;99.90;;;;;;5075353;28;20377;-69
2021/09/15 07:04:42;;;;;;;66.20;48.42;;;18.10;99.90;;;;;;5073983;28;20040;-69
2021/09/15 07:07:08;;;;;;;71.85;50.35;;;18.20;99.90;;;;;;5057450;28;20055;-69
2021/09/15 07:09:34;;;;;;;69.40;48.45;;;18.20;99.90;;;;;;5073545;28;20079;-69
2021/09/15 07:12:00;;;;;;;65.32;49.00;;;18.20;99.90;;;;;;5074193;28;20424;-69
2021/09/15 07:14:25;;;;;;;72.15;49.85;;;18.20;99.90;;;;;;5075058;28;20041;-69
2021/09/15 07:16:51;;;;;;;66.13;47.33;;;18.30;99.90;;;;;;5074831;28;20040;-69
2021/09/15 07:19:16;;;;;;;76.53;52.55;;;18.30;99.90;;;;;;5074717;28;20491;-69
2021/09/15 07:21:42;;;;;;;71.57;52.25;;;18.40;99.90;;;;;;5073421;28;20466;-69
2021/09/15 07:24:08;;;;;;;67.38;49.38;;;18.40;99.90;;;;;;5056983;28;20068;-69
2021/09/15 07:26:33;;;;;;;66.30;49.42;;;18.50;99.90;;;;;;5075288;28;20048;-69
2021/09/15 07:28:59;;;;;;;70.53;51.65;;;18.50;99.90;;;;;;5073670;28;20037;-69
2021/09/15 07:31:24;;;;;;;68.18;49.05;;;18.60;99.90;;;;;;5073364;28;20510;-68
2021/09/15 07:33:50;;;;;;;67.38;48.22;;;18.60;99.90;;;;;;5074593;28;20041;-69
2021/09/15 07:36:16;;;;;;;64.30;48.55;;;18.70;99.90;;;;;;5073447;28;20040;-68
2021/09/15 07:38:41;;;;;;;69.45;49.92;;;18.70;99.90;;;;;;5074509;28;20067;-69
2021/09/15 07:41:07;;;;;;;74.45;51.20;;;18.70;99.90;;;;;;5074516;28;20047;-68
2021/09/15 07:43:33;;;;;;;66.63;49.90;;;18.80;99.90;;;;;;5074795;28;20040;-68
2021/09/15 07:45:58;;;;;;;72.90;53.28;;;18.80;99.90;;;;;;5074395;28;20033;-68
2021/09/15 07:48:24;;;;;;;73.30;52.55;;;18.80;99.90;;;;;;5072437;28;20137;-69
2021/09/15 07:50:50;;;;;;;72.78;53.42;;;18.80;99.90;;;;;;5074076;28;20048;-69
2021/09/15 07:53:17;;;;;;;70.07;50.78;;;18.80;99.90;;;;;;5072996;28;20117;-68
2021/09/15 07:55:43;;;;;;;73.63;52.47;;;18.90;99.90;;;;;;5074228;28;20044;-68
2021/09/15 07:58:08;;;;;;;78.18;51.72;;;18.90;99.90;;;;;;5074394;28;20392;-68
2021/09/15 08:00:34;;;;;;;77.10;52.72;;;18.90;99.90;;;;;;5073865;28;20036;-68
2021/09/15 08:03:00;;;;;;;81.45;52.25;;;19.00;99.90;;;;;;5074051;28;20036;-68
2021/09/15 08:05:25;;;;;;;69.93;48.05;;;19.00;99.90;;;;;;5074086;28;20048;-68
2021/09/15 08:07:51;;;;;;;73.75;47.97;;;18.90;99.90;;;;;;5072875;28;20041;-68
2021/09/15 08:10:16;;;;;;;73.25;49.38;;;19.00;99.90;;;;;;5073702;28;20060;-68
2021/09/15 08:12:42;;;;;;;74.15;48.90;;;19.00;99.90;;;;;;5073872;28;20040;-68
2021/09/15 08:15:08;;;;;;;81.60;50.72;;;19.00;99.90;;;;;;5073769;28;20033;-68
2021/09/15 08:17:34;;;;;;;78.70;51.00;;;19.10;99.90;;;;;;5074121;28;20040;-68
2021/09/15 08:19:59;;;;;;;78.43;49.78;;;19.10;99.90;;;;;;5072254;28;20525;-69
2021/09/15 08:22:25;;;;;;;83.72;51.45;;;19.10;99.90;;;;;;5074358;28;20086;-68
2021/09/15 08:24:51;;;;;;;87.50;50.78;;;19.10;99.90;;;;;;5074537;28;20149;-68
2021/09/15 08:27:16;;;;;;;79.97;51.05;;;19.10;99.90;;;;;;5074037;28;20101;-68
2021/09/15 08:29:42;;;;;;;77.38;48.90;;;19.10;99.90;;;;;;5072597;28;20039;-69
2021/09/15 08:32:08;;;;;;;87.78;52.20;;;19.20;99.90;;;;;;5074242;28;20032;-69
2021/09/15 08:34:34;;;;;;;81.30;50.38;;;19.10;99.90;;;;;;5055951;28;20520;-69
2021/09/15 08:37:00;;;;;;;86.32;52.05;;;19.20;99.90;;;;;;5073951;28;20041;-69
2021/09/15 08:39:26;;;;;;;80.10;49.50;;;19.20;99.90;;;;;;5073396;28;20107;-68
2021/09/15 08:41:53;;;;;;;90.00;52.65;;;19.20;99.90;;;;;;5072040;28;20133;-69
2021/09/15 08:44:19;;;;;;;85.05;53.15;;;19.30;99.90;;;;;;5073718;28;20036;-69
2021/09/15 08:46:45;;;;;;;83.55;49.10;;;19.30;99.90;;;;;;5073543;28;20476;-69
2021/09/15 08:49:11;;;;;;;85.65;50.97;;;19.30;99.90;;;;;;5071720;28;20460;-69
2021/09/15 08:51:37;;;;;;;82.50;50.55;;;19.30;99.90;;;;;;5073163;28;20039;-68
2021/09/15 08:54:04;;;;;;;84.03;51.03;;;19.40;99.90;;;;;;5073483;28;20040;-68
2021/09/15 08:56:30;;;;;;;82.60;50.22;;;19.40;99.90;;;;;;5073224;28;20089;-68
2021/09/15 08:58:56;;;;;;;91.22;51.50;;;19.40;99.90;;;;;;5071642;28;20037;-68
2021/09/15 09:01:24;;;;;;;92.20;53.80;;;19.50;99.90;;;;;;5073252;28;20532;-69
2021/09/15 09:03:55;;;;;;;87.97;50.45;;;19.50;99.90;;;;;;5071790;28;20119;-69
2021/09/15 09:06:23;;;;;;;84.05;50.95;;;19.60;99.90;;;;;;5072408;28;20052;-68
2021/09/15 09:08:53;;;;;;;80.40;50.40;;;19.60;99.90;;;;;;5071891;28;20080;-68
2021/09/15 09:11:23;;;;;;;75.20;47.33;;;19.70;99.90;;;;;;5073066;28;20123;-69
2021/09/15 09:14:00;;;;;;;79.38;51.47;;;19.70;99.90;;;;;;5055294;28;20036;-68
2021/09/15 09:16:44;;;;;;;74.45;48.50;;;19.80;99.90;;;;;;5073209;28;20606;-70
2021/09/15 09:19:13;;;;;;;76.05;49.33;;;19.80;99.90;;;;;;5073170;28;20074;-70
2021/09/15 09:21:44;;;;;;;75.30;49.00;;;19.90;99.90;;;;;;5071965;28;20162;-70
2021/09/15 09:24:12;;;;;;;79.43;49.45;;;19.90;99.90;;;;;;5073170;28;20395;-70
2021/09/15 09:26:57;;;;;;;79.82;49.22;;;19.90;99.90;;;;;;5071514;28;20415;-70
2021/09/15 09:29:27;;;;;;;83.13;49.47;;;19.90;99.90;;;;;;5072794;28;20059;-70
2021/09/15 09:31:55;;;;;;;85.13;50.65;;;20.00;99.90;;;;;;5073040;28;20435;-70
2021/09/15 09:34:23;;;;;;;88.20;53.78;;;19.90;99.90;;;;;;5073281;28;20110;-70
2021/09/15 09:37:00;;;;;;;76.15;50.35;;;20.00;99.90;;;;;;5072761;28;20098;-70
2021/09/15 09:39:41;;;;;;;73.45;47.83;;;20.00;99.90;;;;;;5071224;28;20098;-70
2021/09/15 09:42:26;;;;;;;79.75;48.55;;;20.10;99.90;;;;;;5071735;28;20040;-69
2021/09/15 09:44:55;;;;;;;69.13;47.00;;;20.10;99.90;;;;;;5072798;28;20115;-69
2021/09/15 09:47:22;;;;;;;71.45;45.58;;;20.10;99.90;;;;;;5072779;28;20109;-69
2021/09/15 09:50:12;;;;;;;69.97;45.92;;;20.20;99.90;;;;;;5072715;28;20487;-70
2021/09/15 09:53:04;;;;;;;61.95;43.65;;;20.20;99.90;;;;;;5071708;28;20127;-68
2021/09/15 09:55:35;;;;;;;70.03;44.95;;;20.20;99.90;;;;;;5071341;28;20080;-68
2021/09/15 09:58:03;;;;;;;64.28;43.33;;;20.30;99.90;;;;;;5072788;28;20036;-68
2021/09/15 10:00:29;;;;;;;65.97;44.40;;;20.30;99.90;;;;;;5072852;28;20108;-68
2021/09/15 10:02:57;;;;;;;58.22;41.40;;;20.30;99.90;;;;;;5072757;28;20044;-68
2021/09/15 10:05:23;;;;;;;61.63;41.42;;;20.30;99.90;;;;;;5072630;28;20394;-68
2021/09/15 10:07:49;;;;;;;60.33;42.00;;;20.30;99.90;;;;;;5088299;28;20119;-68
2021/09/15 10:10:17;;;;;;;59.65;41.22;;;20.30;99.90;;;;;;5072164;28;20116;-68
2021/09/15 10:12:46;;;;;;;57.58;41.00;;;20.30;99.90;;;;;;5074721;28;20041;-68
2021/09/15 10:15:13;;;;;;;53.10;38.35;;;20.20;99.90;;;;;;5074805;28;20028;-69
2021/09/15 10:17:50;;;;;;;53.15;36.95;;;20.20;99.90;;;;;;5075438;28;20037;-69
2021/09/15 10:20:21;;;;;;;47.15;34.67;;;20.20;99.90;;;;;;5074409;28;20040;-69
2021/09/15 10:22:49;;;;;;;48.88;36.03;;;20.30;99.90;;;;;;5079634;28;20501;-69
2021/09/15 10:25:15;;;;;;;48.92;36.25;;;20.30;99.90;;;;;;5094955;28;20071;-70
2021/09/15 10:27:56;;;;;;;47.85;37.00;;;20.30;99.90;;;;;;5096199;28;20044;-69
2021/09/15 10:30:22;;;;;;;47.95;36.70;;;20.40;99.90;;;;;;5094751;28;20123;-69
2021/09/15 10:32:50;;;;;;;46.25;35.22;;;20.40;99.90;;;;;;5096143;28;20119;-68
2021/09/15 10:35:46;;;;;;;46.75;33.63;;;20.50;99.90;;;;;;5096182;28;20047;-69
2021/09/15 10:38:12;;;;;;;47.80;34.53;;;20.50;99.90;;;;;;5094807;28;20040;-69
2021/09/15 10:40:39;;;;;;;47.67;34.85;;;20.50;99.90;;;;;;5095677;28;20496;-68
2021/09/15 10:43:38;;;;;;;42.42;33.00;;;20.60;99.90;;;;;;5096065;28;20388;-69
2021/09/15 10:46:23;;;;;;;43.38;32.60;;;20.60;99.90;;;;;;5096001;28;20100;-69
2021/09/15 10:49:16;;;;;;;47.25;35.33;;;20.60;99.90;;;;;;5095753;28;20537;-69
2021/09/15 10:51:41;;;;;;;45.72;34.13;;;20.60;99.90;;;;;;5094672;28;20082;-68
2021/09/15 10:54:38;;;;;;;47.22;34.70;;;20.70;99.90;;;;;;5095853;28;20089;-68
2021/09/15 10:57:15;;;;;;;46.03;35.45;;;20.70;99.90;;;;;;5095943;28;20047;-68
2021/09/15 10:59:54;;;;;;;46.45;32.75;;;20.80;99.90;;;;;;5094290;28;20117;-69
2021/09/15 11:02:33;;;;;;;43.33;32.83;;;20.90;99.90;;;;;;5095886;28;20115;-69
2021/09/15 11:05:04;;;;;;;40.55;31.25;;;21.00;99.90;;;;;;5095486;28;20040;-69
2021/09/15 11:07:48;;;;;;;41.42;31.25;;;21.00;99.90;;;;;;5086388;28;20032;-69
2021/09/15 11:10:38;;;;;;;43.47;34.15;;;21.00;99.90;;;;;;5076881;28;20439;-69
2021/09/15 11:13:12;;;;;;;43.10;32.40;;;20.90;99.90;;;;;;5083305;28;20055;-69
2021/09/15 11:15:43;;;;;;;53.83;39.00;;;20.80;99.90;;;;;;5082675;28;20056;-69
2021/09/15 11:18:35;;;;;;;63.28;40.83;;;20.70;99.90;;;;;;5086438;28;20038;-69
2021/09/15 11:21:10;;;;;;;59.85;40.92;;;20.60;99.90;;;;;;5094775;28;20495;-69
2021/09/15 11:23:36;;;;;;;61.45;41.22;;;20.40;99.90;;;;;;5094226;28;20039;-69
2021/09/15 11:26:04;;;;;;;57.92;39.90;;;20.30;99.90;;;;;;5095262;28;20404;-70
2021/09/15 11:28:30;;;;;;;64.82;41.22;;;20.20;99.90;;;;;;5095089;28;20042;-69
2021/09/15 11:30:57;;;;;;;57.05;39.17;;;20.20;99.90;;;;;;5093538;28;20052;-69
2021/09/15 11:33:31;;;;;;;57.97;38.60;;;20.10;99.90;;;;;;5094022;28;20372;-69
2021/09/15 11:36:06;;;;;;;57.63;37.90;;;20.00;99.90;;;;;;5094823;28;20040;-69
2021/09/15 11:38:34;;;;;;;56.13;36.35;;;20.00;99.90;;;;;;5095572;28;20042;-72
2021/09/15 11:41:08;;;;;;;56.22;36.35;;;20.00;99.90;;;;;;5094969;28;20040;-70
2021/09/15 11:43:35;;;;;;;56.95;35.53;;;20.10;99.90;;;;;;5094256;28;20036;-72
2021/09/15 11:46:00;;;;;;;53.75;33.50;;;20.20;99.90;;;;;;5095297;28;20099;-73
2021/09/15 11:48:28;;;;;;;50.50;31.38;;;20.30;99.90;;;;;;5095131;28;20128;-73
2021/09/15 11:50:55;;;;;;;47.88;31.88;;;20.60;99.90;;;;;;5076276;28;20048;-73
2021/09/15 11:53:22;;;;;;;41.50;29.05;;;20.70;99.90;;;;;;5095150;28;20067;-73
2021/09/15 11:56:03;;;;;;;44.22;30.10;;;20.80;99.90;;;;;;5094853;28;20036;-73
2021/09/15 11:58:29;;;;;;;46.22;30.83;;;20.80;99.90;;;;;;5094375;28;20044;-74
2021/09/15 12:00:56;;;;;;;44.92;29.00;;;20.90;99.90;;;;;;5094522;28;20123;-74
2021/09/15 12:03:27;;;;;;;44.70;29.80;;;20.90;99.90;;;;;;5094484;28;20423;-73
2021/09/15 12:05:57;;;;;;;45.67;30.25;;;20.80;99.90;;;;;;5094394;28;20522;-73
2021/09/15 12:08:23;;;;;;;43.92;29.02;;;20.70;99.90;;;;;;5094529;28;20053;-74
2021/09/15 12:10:52;;;;;;;43.50;30.63;;;20.70;99.90;;;;;;5075566;28;20040;-73
2021/09/15 12:13:18;;;;;;;48.90;30.67;;;20.70;99.90;;;;;;5093073;28;20111;-73
2021/09/15 12:15:46;;;;;;;43.17;29.67;;;20.70;99.90;;;;;;5094151;28;20127;-73
2021/09/15 12:18:12;;;;;;;43.90;31.17;;;20.80;99.90;;;;;;5094418;28;20040;-73
2021/09/15 12:20:42;;;;;;;45.90;30.73;;;20.90;99.90;;;;;;5075533;28;20047;-73
2021/09/15 12:23:08;;;;;;;42.67;29.35;;;21.00;99.90;;;;;;5093983;28;20560;-73
2021/09/15 12:25:34;;;;;;;46.33;31.35;;;21.10;99.90;;;;;;5093831;28;20408;-73
2021/09/15 12:28:00;;;;;;;45.85;31.55;;;21.20;99.90;;;;;;5094135;28;20044;-73
2021/09/15 12:30:25;;;;;;;43.47;29.58;;;21.30;99.90;;;;;;5093895;28;20028;-73
2021/09/15 12:32:59;;;;;;;41.30;28.60;;;21.40;99.90;;;;;;5092536;28;20032;-73
2021/09/15 12:35:33;;;;;;;33.80;25.27;;;21.60;99.90;;;;;;5093514;28;20044;-73
2021/09/15 12:38:04;;;;;;;28.85;21.95;;;21.70;99.90;;;;;;5075897;28;20067;-75